Arctic Taglu — CY8968 — position and weather

sailwx.info

Track history (hours):
 
Tides and Currents Weather Stations Pressure Air Temp Water Temp Dewpoint Dewpoint Depression Visibility Wind Speed Wind Dir Waves Ship Positions

Arctic Taglu

Last reported at 2014-Dec-19 15:33 UTC. Time now 2014-Dec-19 15:47 UTC.
Position N 49°09' W 123°02'.

Length 33 m; draft 6 m.

Type: Tug. MMSI: 316003483.

Date/timePositionNaut miles runAvg speedWind from/ knotsBaromVisibWave heightAir tempDewpointWater temp
2014-Dec-19 15:33N 49°09' W 123°02'0 0.5
2014-Dec-19 14:33N 49°08' W 123°03'9 8.8
2014-Dec-19 13:33N 49°07' W 123°16'9 9.3
2014-Dec-19 12:33N 49°09' W 123°30'10 9.9
2014-Dec-19 11:33N 49°12' W 123°44'8 7.6
2014-Dec-19 10:33N 49°10' W 123°56'0 0.0
2014-Dec-19 09:33N 49°10' W 123°56'2 1.9
2014-Dec-19 08:33N 49°11' W 123°54'10 9.6
2014-Dec-19 07:33N 49°11' W 123°39'1010.4
2014-Dec-19 06:33N 49°07' W 123°24'1110.6
2014-Dec-19 05:33N 49°06' W 123°08'4 4.4
2014-Dec-19 04:33N 49°09' W 123°02'0 0.0
2014-Dec-19 03:33N 49°09' W 123°02'0 0.0
2014-Dec-19 02:33N 49°09' W 123°02'0 0.0
2014-Dec-19 01:33N 49°09' W 123°02'0 0.0
2014-Dec-19 00:33N 49°09' W 123°02'0 0.0
2014-Dec-18 23:33N 49°09' W 123°02'0 0.0
2014-Dec-18 22:33N 49°09' W 123°02'0 0.0
2014-Dec-18 21:33N 49°09' W 123°02'0 0.0
2014-Dec-18 20:33N 49°09' W 123°02'0 0.0
2014-Dec-18 19:33N 49°09' W 123°02'0 0.0
2014-Dec-18 18:34N 49°09' W 123°02'0 0.0
2014-Dec-18 17:33N 49°09' W 123°02'0 0.0
2014-Dec-18 16:34N 49°09' W 123°02'0 0.0
2014-Dec-18 15:33N 49°09' W 123°02'2 1.9
2014-Dec-18 14:33N 49°07' W 123°04'8 8.5
2014-Dec-18 13:33N 49°07' W 123°17'9 9.4
2014-Dec-18 12:33N 49°08' W 123°31'10 9.7
2014-Dec-18 11:33N 49°12' W 123°45'7 7.3
2014-Dec-18 10:33N 49°10' W 123°56'0 0.0
2014-Dec-18 09:33N 49°10' W 123°56'2 2.1
2014-Dec-18 08:33N 49°12' W 123°54'9 9.4
2014-Dec-18 07:33N 49°11' W 123°40'1010.1
2014-Dec-18 06:34N 49°08' W 123°25'1010.1
2014-Dec-18 05:33N 49°07' W 123°10'5 5.3
2014-Dec-18 04:33N 49°09' W 123°02'0 0.0
2014-Dec-18 03:33N 49°09' W 123°02'0 0.0
2014-Dec-18 02:33N 49°09' W 123°02'0 0.0
2014-Dec-18 01:33N 49°09' W 123°02'0 0.0
2014-Dec-18 00:34N 49°09' W 123°02'0 0.0
2014-Dec-17 23:33N 49°09' W 123°02'0 0.0
2014-Dec-17 22:33N 49°09' W 123°02'0 0.0
2014-Dec-17 21:33N 49°09' W 123°02'0 0.0
2014-Dec-17 20:33N 49°09' W 123°02'0 0.0
2014-Dec-17 19:33N 49°09' W 123°02'0 0.0
2014-Dec-17 18:33N 49°09' W 123°02'0 0.0
2014-Dec-17 17:33N 49°09' W 123°02'0 0.0
2014-Dec-17 16:33N 49°09' W 123°02'0 0.0
2014-Dec-17 15:33N 49°09' W 123°02'6 5.6
2014-Dec-17 14:33N 49°07' W 123°10'9 8.6
2014-Dec-17 13:33N 49°07' W 123°23'1010.0
2014-Dec-17 12:33N 49°10' W 123°38'9 9.3
2014-Dec-17 11:33N 49°12' W 123°52'4 3.6
2014-Dec-17 10:33N 49°10' W 123°56'0 0.0
2014-Dec-17 09:33N 49°10' W 123°56'5 5.3
2014-Dec-17 08:33N 49°13' W 123°49'1010.2
2014-Dec-17 07:33N 49°10' W 123°34'10 9.9
2014-Dec-17 06:33N 49°06' W 123°20'1110.6
2014-Dec-17 05:33N 49°07' W 123°04'2 1.8
2014-Dec-17 04:33N 49°09' W 123°02'0 0.0
2014-Dec-17 03:33N 49°09' W 123°02'0 0.0
2014-Dec-17 02:33N 49°09' W 123°02'0 0.0
2014-Dec-17 01:33N 49°09' W 123°02'0 0.0
2014-Dec-17 00:33N 49°09' W 123°02'0 0.0
2014-Dec-16 23:33N 49°09' W 123°02'0 0.0
2014-Dec-16 22:33N 49°09' W 123°02'0 0.0
2014-Dec-16 21:33N 49°09' W 123°02'0 0.0
2014-Dec-16 20:33N 49°09' W 123°02'0 0.0
2014-Dec-16 19:33N 49°09' W 123°02'0 0.0
2014-Dec-16 18:33N 49°09' W 123°02'0 0.0
2014-Dec-16 17:33N 49°09' W 123°02'0 0.0
2014-Dec-16 16:33N 49°09' W 123°02'0 0.0
2014-Dec-16 15:33N 49°09' W 123°02'2 1.5
2014-Dec-16 14:33N 49°08' W 123°04'8 7.7
2014-Dec-16 13:33N 49°07' W 123°16'9 9.4
2014-Dec-16 12:33N 49°08' W 123°30'1010.2
2014-Dec-16 11:33N 49°12' W 123°45'8 7.6
2014-Dec-16 10:33N 49°10' W 123°56'0 0.0
2014-Dec-16 09:33N 49°10' W 123°56'5 4.6
2014-Dec-16 08:33N 49°13' W 123°50'1010.1
2014-Dec-16 07:33N 49°10' W 123°35'10 9.8
2014-Dec-16 06:33N 49°07' W 123°21'1010.2
2014-Dec-16 05:33N 49°07' W 123°06'3 2.8
2014-Dec-16 04:33N 49°09' W 123°02'0 0.0
2014-Dec-16 03:31N 49°09' W 123°02'0 0.0
2014-Dec-16 01:09N 49°09' W 123°02'0 0.0
2014-Dec-15 23:33N 49°09' W 123°02'0 0.0
2014-Dec-15 22:33N 49°09' W 123°02'0 0.0
2014-Dec-15 21:33N 49°09' W 123°02'0 0.0
2014-Dec-15 20:33N 49°09' W 123°02'0 0.0
2014-Dec-15 19:33N 49°09' W 123°02'0 0.0
2014-Dec-15 18:33N 49°09' W 123°02'0 0.0
2014-Dec-15 17:33N 49°09' W 123°02'0 0.0
2014-Dec-15 16:33N 49°09' W 123°02'0 0.0
2014-Dec-15 15:33N 49°09' W 123°02'0 0.0
2014-Dec-15 14:33N 49°09' W 123°02'0 0.0
2014-Dec-15 13:33N 49°09' W 123°02'0 0.0
2014-Dec-15 12:33N 49°09' W 123°02'0 0.0
2014-Dec-15 11:33N 49°09' W 123°02'0 0.0
2014-Dec-15 10:33N 49°09' W 123°02'0 0.0
2014-Dec-15 09:33N 49°09' W 123°02'0 0.0
2014-Dec-15 08:33N 49°09' W 123°02'0 0.0
2014-Dec-15 07:33N 49°09' W 123°02'0 0.0
2014-Dec-15 06:33N 49°09' W 123°02'0 0.0
2014-Dec-15 05:33N 49°09' W 123°02'0 0.0
2014-Dec-15 04:33N 49°09' W 123°02'0 0.0
2014-Dec-15 03:33N 49°09' W 123°02'0 0.0
2014-Dec-15 02:33N 49°09' W 123°02'0 0.0
2014-Dec-15 01:33N 49°09' W 123°02'0 0.0
2014-Dec-15 00:33N 49°09' W 123°02'0 0.0
2014-Dec-14 23:33N 49°09' W 123°02'0 0.0
2014-Dec-14 22:33N 49°09' W 123°02'0 0.0
2014-Dec-14 21:33N 49°09' W 123°02'0 0.0
2014-Dec-14 20:30N 49°09' W 123°02'0 0.0
2014-Dec-14 19:33N 49°09' W 123°02'0 0.0
2014-Dec-14 18:33N 49°09' W 123°02'0 0.0
2014-Dec-14 17:33N 49°09' W 123°02'0 0.0
2014-Dec-14 16:33N 49°09' W 123°02'0 0.0
2014-Dec-14 15:33N 49°09' W 123°02'0 0.0
2014-Dec-14 14:33N 49°09' W 123°02'0 0.0
2014-Dec-14 13:33N 49°09' W 123°02'0 0.0
2014-Dec-14 12:33N 49°09' W 123°02'0 0.0
2014-Dec-14 11:33N 49°09' W 123°02'0 0.0
2014-Dec-14 10:33N 49°09' W 123°02'0 0.0
2014-Dec-14 09:33N 49°09' W 123°02'0 0.0
2014-Dec-14 08:33N 49°09' W 123°02'0 0.0
2014-Dec-14 07:33N 49°09' W 123°02'0 0.0
2014-Dec-14 06:33N 49°09' W 123°02'0 0.0
2014-Dec-14 05:33N 49°09' W 123°02'0 0.0
2014-Dec-14 04:33N 49°09' W 123°02'0 0.0
2014-Dec-14 03:33N 49°09' W 123°02'0 0.0
2014-Dec-14 02:33N 49°09' W 123°02'0 0.0
2014-Dec-14 01:33N 49°09' W 123°02'0 0.0
2014-Dec-14 00:33N 49°09' W 123°02'0 0.0
2014-Dec-13 23:33N 49°09' W 123°02'0 0.0
2014-Dec-13 22:33N 49°09' W 123°02'0 0.0
2014-Dec-13 21:33N 49°09' W 123°02'0 0.0
2014-Dec-13 20:33N 49°09' W 123°02'0 0.0
2014-Dec-13 19:33N 49°09' W 123°02'0 0.0
2014-Dec-13 18:33N 49°09' W 123°02'0 0.0
2014-Dec-13 17:33N 49°09' W 123°02'0 0.0
2014-Dec-13 16:33N 49°09' W 123°02'0 0.0
2014-Dec-13 15:33N 49°09' W 123°02'2 2.5
2014-Dec-13 14:33N 49°07' W 123°05'9 8.5
2014-Dec-13 13:33N 49°06' W 123°18'10 9.9
2014-Dec-13 12:34N 49°09' W 123°33'1111.0
2014-Dec-13 11:33N 49°13' W 123°48'6 5.7
2014-Dec-13 10:33N 49°10' W 123°56'0 0.0
2014-Dec-13 09:33N 49°10' W 123°56'5 4.7
2014-Dec-13 08:34N 49°13' W 123°50'9 9.1
2014-Dec-13 07:34N 49°10' W 123°37'1010.3
2014-Dec-13 06:33N 49°07' W 123°22'1010.3
2014-Dec-13 05:33N 49°07' W 123°06'3 3.3
2014-Dec-13 04:34N 49°09' W 123°02'0 0.0
2014-Dec-13 03:33N 49°09' W 123°02'0 0.0
2014-Dec-13 02:33N 49°09' W 123°02'0 0.0
2014-Dec-13 01:33N 49°09' W 123°02'0 0.0
2014-Dec-13 00:33N 49°09' W 123°02'0 0.0
2014-Dec-12 23:33N 49°09' W 123°02'0 0.0
2014-Dec-12 22:33N 49°09' W 123°02'0 0.0
2014-Dec-12 21:33N 49°09' W 123°02'0 0.0
2014-Dec-12 20:33N 49°09' W 123°02'0 0.0
2014-Dec-12 19:33N 49°09' W 123°02'0 0.0
2014-Dec-12 18:33N 49°09' W 123°02'0 0.0
2014-Dec-12 17:33N 49°09' W 123°02'0 0.0
2014-Dec-12 16:33N 49°09' W 123°02'0 0.0
2014-Dec-12 15:34N 49°09' W 123°02'5 4.9
2014-Dec-12 14:34N 49°07' W 123°09'9 8.6
2014-Dec-12 13:33N 49°07' W 123°22'1010.1
2014-Dec-12 12:34N 49°11' W 123°37'10 9.9
2014-Dec-12 11:34N 49°12' W 123°52'4 3.6
2014-Dec-12 10:33N 49°10' W 123°56'0 0.0
2014-Dec-12 09:34N 49°10' W 123°56'3 2.7
2014-Dec-12 08:33N 49°12' W 123°53'10 9.7
2014-Dec-12 07:34N 49°11' W 123°38'1010.5
2014-Dec-12 06:33N 49°07' W 123°23'1111.2
2014-Dec-12 05:34N 49°07' W 123°06'3 3.0
2014-Dec-12 04:34N 49°09' W 123°02'0 0.0
2014-Dec-12 03:31N 49°09' W 123°02'0 0.0
2014-Dec-12 02:31N 49°09' W 123°02'0 0.0
2014-Dec-12 01:31N 49°09' W 123°02'0 0.0
2014-Dec-12 00:31N 49°09' W 123°02'0 0.0
2014-Dec-11 23:31N 49°09' W 123°02'0 0.0
2014-Dec-11 22:31N 49°09' W 123°02'0 0.0
2014-Dec-11 21:28N 49°09' W 123°02'0 0.0
2014-Dec-11 20:31N 49°09' W 123°02'0 0.0
2014-Dec-11 19:31N 49°09' W 123°02'0 0.0
2014-Dec-11 18:33N 49°09' W 123°02'0 0.0
2014-Dec-11 17:33N 49°09' W 123°02'0 0.0
2014-Dec-11 16:33N 49°09' W 123°02'0 0.0
2014-Dec-11 15:33N 49°09' W 123°02'5 5.2
2014-Dec-11 14:33N 49°07' W 123°09'9 8.9
2014-Dec-11 13:33N 49°07' W 123°23'9 8.9
2014-Dec-11 12:33N 49°10' W 123°36'10 9.6
2014-Dec-11 11:33N 49°13' W 123°50'5 4.8
2014-Dec-11 10:33N 49°10' W 123°56'0 0.0
2014-Dec-11 09:33N 49°10' W 123°56'4 3.6
2014-Dec-11 08:33N 49°13' W 123°52'9 9.5
2014-Dec-11 07:33N 49°11' W 123°38'1010.3
2014-Dec-11 06:33N 49°07' W 123°23'1111.2
2014-Dec-11 05:33N 49°07' W 123°06'3 3.0
2014-Dec-11 04:33N 49°09' W 123°02'0 0.0
2014-Dec-11 03:31N 49°09' W 123°02'0 0.0
2014-Dec-11 02:31N 49°09' W 123°02'0 0.0
2014-Dec-11 01:28N 49°09' W 123°02'0 0.0
2014-Dec-11 00:31N 49°09' W 123°02'0 0.0
2014-Dec-10 23:31N 49°09' W 123°02'0 0.0
2014-Dec-10 22:31N 49°09' W 123°02'0 0.0
2014-Dec-10 21:31N 49°09' W 123°02'0 0.0
2014-Dec-10 20:31N 49°09' W 123°02'0 0.0
2014-Dec-10 19:31N 49°09' W 123°02'0 0.0
2014-Dec-10 18:31N 49°09' W 123°02'0 0.0
2014-Dec-10 17:31N 49°09' W 123°02'0 0.0
2014-Dec-10 16:33N 49°09' W 123°02'0 0.0
2014-Dec-10 15:33N 49°09' W 123°02'5 5.2
2014-Dec-10 14:33N 49°07' W 123°10'9 9.0
2014-Dec-10 13:33N 49°08' W 123°23'9 8.7
2014-Dec-10 12:33N 49°12' W 123°35'9 9.4
2014-Dec-10 11:33N 49°13' W 123°49'5 5.3
2014-Dec-10 10:33N 49°10' W 123°56'0 0.0
2014-Dec-10 09:33N 49°10' W 123°56'2 1.8
2014-Dec-10 08:33N 49°11' W 123°54'9 8.9
2014-Dec-10 07:33N 49°11' W 123°40'1010.4
2014-Dec-10 06:33N 49°07' W 123°26'1111.3
2014-Dec-10 05:33N 49°07' W 123°09'5 4.7
2014-Dec-10 04:33N 49°09' W 123°02'0 0.0
2014-Dec-10 03:33N 49°09' W 123°02'0 0.0
2014-Dec-10 02:33N 49°09' W 123°02'0 0.0
2014-Dec-10 01:33N 49°09' W 123°02'0 0.0
2014-Dec-10 00:33N 49°09' W 123°02'0 0.0
2014-Dec-09 23:33N 49°09' W 123°02'0 0.0
2014-Dec-09 22:33N 49°09' W 123°02'0 0.0
2014-Dec-09 21:33N 49°09' W 123°02'0 0.0
2014-Dec-09 20:33N 49°09' W 123°02'0 0.0
2014-Dec-09 19:33N 49°09' W 123°02'0 0.0
2014-Dec-09 18:33N 49°09' W 123°02'0 0.0
2014-Dec-09 17:33N 49°09' W 123°02'0 0.0
2014-Dec-09 16:33N 49°09' W 123°02'  
Track history (hours):
 
Tides and Currents Weather Stations Pressure Air Temp Water Temp Dewpoint Dewpoint Depression Visibility Wind Speed Wind Dir Waves Ship Positions

Arctic Taglu

Last reported at 2014-Dec-19 15:33 UTC. Time now 2014-Dec-19 15:47 UTC.
Position N 49°09' W 123°02'.

Length 33 m; draft 6 m.

Type: Tug. MMSI: 316003483.

Date/timePositionNaut miles runAvg speedWind from/ knotsBaromVisibWave heightAir tempDewpointWater temp
2014-Dec-19 15:33N 49°09' W 123°02'0 0.5
2014-Dec-19 14:33N 49°08' W 123°03'9 8.8
2014-Dec-19 13:33N 49°07' W 123°16'9 9.3
2014-Dec-19 12:33N 49°09' W 123°30'10 9.9
2014-Dec-19 11:33N 49°12' W 123°44'8 7.6
2014-Dec-19 10:33N 49°10' W 123°56'0 0.0
2014-Dec-19 09:33N 49°10' W 123°56'2 1.9
2014-Dec-19 08:33N 49°11' W 123°54'10 9.6
2014-Dec-19 07:33N 49°11' W 123°39'1010.4
2014-Dec-19 06:33N 49°07' W 123°24'1110.6
2014-Dec-19 05:33N 49°06' W 123°08'4 4.4
2014-Dec-19 04:33N 49°09' W 123°02'0 0.0
2014-Dec-19 03:33N 49°09' W 123°02'0 0.0
2014-Dec-19 02:33N 49°09' W 123°02'0 0.0
2014-Dec-19 01:33N 49°09' W 123°02'0 0.0
2014-Dec-19 00:33N 49°09' W 123°02'0 0.0
2014-Dec-18 23:33N 49°09' W 123°02'0 0.0
2014-Dec-18 22:33N 49°09' W 123°02'0 0.0
2014-Dec-18 21:33N 49°09' W 123°02'0 0.0
2014-Dec-18 20:33N 49°09' W 123°02'0 0.0
2014-Dec-18 19:33N 49°09' W 123°02'0 0.0
2014-Dec-18 18:34N 49°09' W 123°02'0 0.0
2014-Dec-18 17:33N 49°09' W 123°02'0 0.0
2014-Dec-18 16:34N 49°09' W 123°02'0 0.0
2014-Dec-18 15:33N 49°09' W 123°02'2 1.9
2014-Dec-18 14:33N 49°07' W 123°04'8 8.5
2014-Dec-18 13:33N 49°07' W 123°17'9 9.4
2014-Dec-18 12:33N 49°08' W 123°31'10 9.7
2014-Dec-18 11:33N 49°12' W 123°45'7 7.3
2014-Dec-18 10:33N 49°10' W 123°56'0 0.0
2014-Dec-18 09:33N 49°10' W 123°56'2 2.1
2014-Dec-18 08:33N 49°12' W 123°54'9 9.4
2014-Dec-18 07:33N 49°11' W 123°40'1010.1
2014-Dec-18 06:34N 49°08' W 123°25'1010.1
2014-Dec-18 05:33N 49°07' W 123°10'5 5.3
2014-Dec-18 04:33N 49°09' W 123°02'0 0.0
2014-Dec-18 03:33N 49°09' W 123°02'0 0.0
2014-Dec-18 02:33N 49°09' W 123°02'0 0.0
2014-Dec-18 01:33N 49°09' W 123°02'0 0.0
2014-Dec-18 00:34N 49°09' W 123°02'0 0.0
2014-Dec-17 23:33N 49°09' W 123°02'0 0.0
2014-Dec-17 22:33N 49°09' W 123°02'0 0.0
2014-Dec-17 21:33N 49°09' W 123°02'0 0.0
2014-Dec-17 20:33N 49°09' W 123°02'0 0.0
2014-Dec-17 19:33N 49°09' W 123°02'0 0.0
2014-Dec-17 18:33N 49°09' W 123°02'0 0.0
2014-Dec-17 17:33N 49°09' W 123°02'0 0.0
2014-Dec-17 16:33N 49°09' W 123°02'0 0.0
2014-Dec-17 15:33N 49°09' W 123°02'6 5.6
2014-Dec-17 14:33N 49°07' W 123°10'9 8.6
2014-Dec-17 13:33N 49°07' W 123°23'1010.0
2014-Dec-17 12:33N 49°10' W 123°38'9 9.3
2014-Dec-17 11:33N 49°12' W 123°52'4 3.6
2014-Dec-17 10:33N 49°10' W 123°56'0 0.0
2014-Dec-17 09:33N 49°10' W 123°56'5 5.3
2014-Dec-17 08:33N 49°13' W 123°49'1010.2
2014-Dec-17 07:33N 49°10' W 123°34'10 9.9
2014-Dec-17 06:33N 49°06' W 123°20'1110.6
2014-Dec-17 05:33N 49°07' W 123°04'2 1.8
2014-Dec-17 04:33N 49°09' W 123°02'0 0.0
2014-Dec-17 03:33N 49°09' W 123°02'0 0.0
2014-Dec-17 02:33N 49°09' W 123°02'0 0.0
2014-Dec-17 01:33N 49°09' W 123°02'0 0.0
2014-Dec-17 00:33N 49°09' W 123°02'0 0.0
2014-Dec-16 23:33N 49°09' W 123°02'0 0.0
2014-Dec-16 22:33N 49°09' W 123°02'0 0.0
2014-Dec-16 21:33N 49°09' W 123°02'0 0.0
2014-Dec-16 20:33N 49°09' W 123°02'0 0.0
2014-Dec-16 19:33N 49°09' W 123°02'0 0.0
2014-Dec-16 18:33N 49°09' W 123°02'0 0.0
2014-Dec-16 17:33N 49°09' W 123°02'0 0.0
2014-Dec-16 16:33N 49°09' W 123°02'0 0.0
2014-Dec-16 15:33N 49°09' W 123°02'2 1.5
2014-Dec-16 14:33N 49°08' W 123°04'8 7.7
2014-Dec-16 13:33N 49°07' W 123°16'9 9.4
2014-Dec-16 12:33N 49°08' W 123°30'1010.2
2014-Dec-16 11:33N 49°12' W 123°45'8 7.6
2014-Dec-16 10:33N 49°10' W 123°56'0 0.0
2014-Dec-16 09:33N 49°10' W 123°56'5 4.6
2014-Dec-16 08:33N 49°13' W 123°50'1010.1
2014-Dec-16 07:33N 49°10' W 123°35'10 9.8
2014-Dec-16 06:33N 49°07' W 123°21'1010.2
2014-Dec-16 05:33N 49°07' W 123°06'3 2.8
2014-Dec-16 04:33N 49°09' W 123°02'0 0.0
2014-Dec-16 03:31N 49°09' W 123°02'0 0.0
2014-Dec-16 01:09N 49°09' W 123°02'0 0.0
2014-Dec-15 23:33N 49°09' W 123°02'0 0.0
2014-Dec-15 22:33N 49°09' W 123°02'0 0.0
2014-Dec-15 21:33N 49°09' W 123°02'0 0.0
2014-Dec-15 20:33N 49°09' W 123°02'0 0.0
2014-Dec-15 19:33N 49°09' W 123°02'0 0.0
2014-Dec-15 18:33N 49°09' W 123°02'0 0.0
2014-Dec-15 17:33N 49°09' W 123°02'0 0.0
2014-Dec-15 16:33N 49°09' W 123°02'0 0.0
2014-Dec-15 15:33N 49°09' W 123°02'0 0.0
2014-Dec-15 14:33N 49°09' W 123°02'0 0.0
2014-Dec-15 13:33N 49°09' W 123°02'0 0.0
2014-Dec-15 12:33N 49°09' W 123°02'0 0.0
2014-Dec-15 11:33N 49°09' W 123°02'0 0.0
2014-Dec-15 10:33N 49°09' W 123°02'0 0.0
2014-Dec-15 09:33N 49°09' W 123°02'0 0.0
2014-Dec-15 08:33N 49°09' W 123°02'0 0.0
2014-Dec-15 07:33N 49°09' W 123°02'0 0.0
2014-Dec-15 06:33N 49°09' W 123°02'0 0.0
2014-Dec-15 05:33N 49°09' W 123°02'0 0.0
2014-Dec-15 04:33N 49°09' W 123°02'0 0.0
2014-Dec-15 03:33N 49°09' W 123°02'0 0.0
2014-Dec-15 02:33N 49°09' W 123°02'0 0.0
2014-Dec-15 01:33N 49°09' W 123°02'0 0.0
2014-Dec-15 00:33N 49°09' W 123°02'0 0.0
2014-Dec-14 23:33N 49°09' W 123°02'0 0.0
2014-Dec-14 22:33N 49°09' W 123°02'0 0.0
2014-Dec-14 21:33N 49°09' W 123°02'0 0.0
2014-Dec-14 20:30N 49°09' W 123°02'0 0.0
2014-Dec-14 19:33N 49°09' W 123°02'0 0.0
2014-Dec-14 18:33N 49°09' W 123°02'0 0.0
2014-Dec-14 17:33N 49°09' W 123°02'0 0.0
2014-Dec-14 16:33N 49°09' W 123°02'0 0.0
2014-Dec-14 15:33N 49°09' W 123°02'0 0.0
2014-Dec-14 14:33N 49°09' W 123°02'0 0.0
2014-Dec-14 13:33N 49°09' W 123°02'0 0.0
2014-Dec-14 12:33N 49°09' W 123°02'0 0.0
2014-Dec-14 11:33N 49°09' W 123°02'0 0.0
2014-Dec-14 10:33N 49°09' W 123°02'0 0.0
2014-Dec-14 09:33N 49°09' W 123°02'0 0.0
2014-Dec-14 08:33N 49°09' W 123°02'0 0.0
2014-Dec-14 07:33N 49°09' W 123°02'0 0.0
2014-Dec-14 06:33N 49°09' W 123°02'0 0.0
2014-Dec-14 05:33N 49°09' W 123°02'0 0.0
2014-Dec-14 04:33N 49°09' W 123°02'0 0.0
2014-Dec-14 03:33N 49°09' W 123°02'0 0.0
2014-Dec-14 02:33N 49°09' W 123°02'0 0.0
2014-Dec-14 01:33N 49°09' W 123°02'0 0.0
2014-Dec-14 00:33N 49°09' W 123°02'0 0.0
2014-Dec-13 23:33N 49°09' W 123°02'0 0.0
2014-Dec-13 22:33N 49°09' W 123°02'0 0.0
2014-Dec-13 21:33N 49°09' W 123°02'0 0.0
2014-Dec-13 20:33N 49°09' W 123°02'0 0.0
2014-Dec-13 19:33N 49°09' W 123°02'0 0.0
2014-Dec-13 18:33N 49°09' W 123°02'0 0.0
2014-Dec-13 17:33N 49°09' W 123°02'0 0.0
2014-Dec-13 16:33N 49°09' W 123°02'0 0.0
2014-Dec-13 15:33N 49°09' W 123°02'2 2.5
2014-Dec-13 14:33N 49°07' W 123°05'9 8.5
2014-Dec-13 13:33N 49°06' W 123°18'10 9.9
2014-Dec-13 12:34N 49°09' W 123°33'1111.0
2014-Dec-13 11:33N 49°13' W 123°48'6 5.7
2014-Dec-13 10:33N 49°10' W 123°56'0 0.0
2014-Dec-13 09:33N 49°10' W 123°56'5 4.7
2014-Dec-13 08:34N 49°13' W 123°50'9 9.1
2014-Dec-13 07:34N 49°10' W 123°37'1010.3
2014-Dec-13 06:33N 49°07' W 123°22'1010.3
2014-Dec-13 05:33N 49°07' W 123°06'3 3.3
2014-Dec-13 04:34N 49°09' W 123°02'0 0.0
2014-Dec-13 03:33N 49°09' W 123°02'0 0.0
2014-Dec-13 02:33N 49°09' W 123°02'0 0.0
2014-Dec-13 01:33N 49°09' W 123°02'0 0.0
2014-Dec-13 00:33N 49°09' W 123°02'0 0.0
2014-Dec-12 23:33N 49°09' W 123°02'0 0.0
2014-Dec-12 22:33N 49°09' W 123°02'0 0.0
2014-Dec-12 21:33N 49°09' W 123°02'0 0.0
2014-Dec-12 20:33N 49°09' W 123°02'0 0.0
2014-Dec-12 19:33N 49°09' W 123°02'0 0.0
2014-Dec-12 18:33N 49°09' W 123°02'0 0.0
2014-Dec-12 17:33N 49°09' W 123°02'0 0.0
2014-Dec-12 16:33N 49°09' W 123°02'0 0.0
2014-Dec-12 15:34N 49°09' W 123°02'5 4.9
2014-Dec-12 14:34N 49°07' W 123°09'9 8.6
2014-Dec-12 13:33N 49°07' W 123°22'1010.1
2014-Dec-12 12:34N 49°11' W 123°37'10 9.9
2014-Dec-12 11:34N 49°12' W 123°52'4 3.6
2014-Dec-12 10:33N 49°10' W 123°56'0 0.0
2014-Dec-12 09:34N 49°10' W 123°56'3 2.7
2014-Dec-12 08:33N 49°12' W 123°53'10 9.7
2014-Dec-12 07:34N 49°11' W 123°38'1010.5
2014-Dec-12 06:33N 49°07' W 123°23'1111.2
2014-Dec-12 05:34N 49°07' W 123°06'3 3.0
2014-Dec-12 04:34N 49°09' W 123°02'0 0.0
2014-Dec-12 03:31N 49°09' W 123°02'0 0.0
2014-Dec-12 02:31N 49°09' W 123°02'0 0.0
2014-Dec-12 01:31N 49°09' W 123°02'0 0.0
2014-Dec-12 00:31N 49°09' W 123°02'0 0.0
2014-Dec-11 23:31N 49°09' W 123°02'0 0.0
2014-Dec-11 22:31N 49°09' W 123°02'0 0.0
2014-Dec-11 21:28N 49°09' W 123°02'0 0.0
2014-Dec-11 20:31N 49°09' W 123°02'0 0.0
2014-Dec-11 19:31N 49°09' W 123°02'0 0.0
2014-Dec-11 18:33N 49°09' W 123°02'0 0.0
2014-Dec-11 17:33N 49°09' W 123°02'0 0.0
2014-Dec-11 16:33N 49°09' W 123°02'0 0.0
2014-Dec-11 15:33N 49°09' W 123°02'5 5.2
2014-Dec-11 14:33N 49°07' W 123°09'9 8.9
2014-Dec-11 13:33N 49°07' W 123°23'9 8.9
2014-Dec-11 12:33N 49°10' W 123°36'10 9.6
2014-Dec-11 11:33N 49°13' W 123°50'5 4.8
2014-Dec-11 10:33N 49°10' W 123°56'0 0.0
2014-Dec-11 09:33N 49°10' W 123°56'4 3.6
2014-Dec-11 08:33N 49°13' W 123°52'9 9.5
2014-Dec-11 07:33N 49°11' W 123°38'1010.3
2014-Dec-11 06:33N 49°07' W 123°23'1111.2
2014-Dec-11 05:33N 49°07' W 123°06'3 3.0
2014-Dec-11 04:33N 49°09' W 123°02'0 0.0
2014-Dec-11 03:31N 49°09' W 123°02'0 0.0
2014-Dec-11 02:31N 49°09' W 123°02'0 0.0
2014-Dec-11 01:28N 49°09' W 123°02'0 0.0
2014-Dec-11 00:31N 49°09' W 123°02'0 0.0
2014-Dec-10 23:31N 49°09' W 123°02'0 0.0
2014-Dec-10 22:31N 49°09' W 123°02'0 0.0
2014-Dec-10 21:31N 49°09' W 123°02'0 0.0
2014-Dec-10 20:31N 49°09' W 123°02'0 0.0
2014-Dec-10 19:31N 49°09' W 123°02'0 0.0
2014-Dec-10 18:31N 49°09' W 123°02'0 0.0
2014-Dec-10 17:31N 49°09' W 123°02'0 0.0
2014-Dec-10 16:33N 49°09' W 123°02'0 0.0
2014-Dec-10 15:33N 49°09' W 123°02'5 5.2
2014-Dec-10 14:33N 49°07' W 123°10'9 9.0
2014-Dec-10 13:33N 49°08' W 123°23'9 8.7
2014-Dec-10 12:33N 49°12' W 123°35'9 9.4
2014-Dec-10 11:33N 49°13' W 123°49'5 5.3
2014-Dec-10 10:33N 49°10' W 123°56'0 0.0
2014-Dec-10 09:33N 49°10' W 123°56'2 1.8
2014-Dec-10 08:33N 49°11' W 123°54'9 8.9
2014-Dec-10 07:33N 49°11' W 123°40'1010.4
2014-Dec-10 06:33N 49°07' W 123°26'1111.3
2014-Dec-10 05:33N 49°07' W 123°09'5 4.7
2014-Dec-10 04:33N 49°09' W 123°02'0 0.0
2014-Dec-10 03:33N 49°09' W 123°02'0 0.0
2014-Dec-10 02:33N 49°09' W 123°02'0 0.0
2014-Dec-10 01:33N 49°09' W 123°02'0 0.0
2014-Dec-10 00:33N 49°09' W 123°02'0 0.0
2014-Dec-09 23:33N 49°09' W 123°02'0 0.0
2014-Dec-09 22:33N 49°09' W 123°02'0 0.0
2014-Dec-09 21:33N 49°09' W 123°02'0 0.0
2014-Dec-09 20:33N 49°09' W 123°02'0 0.0
2014-Dec-09 19:33N 49°09' W 123°02'0 0.0
2014-Dec-09 18:33N 49°09' W 123°02'0 0.0
2014-Dec-09 17:33N 49°09' W 123°02'0 0.0
2014-Dec-09 16:33N 49°09' W 123°02'  

Dump ship's entire track history